Kezdőlap
METAR-TAF:

METAR-TAF

Repülőterek :

Durant, Oklahoma, Amerikai Egyesült Államok

földrajzi szélesség: 33-56-32N, földrajzi hosszúság: 096-23-40W, magasság: 213 m

Jelenlegi meteorológiai megfigyelések

A jelentés 44 perccel ezelõtt készült, 11:35 UTC
Szélcsend
Hőmérséklet 22°C
Páratartalom 78%
Légköri nyomás 1019 hPa
Látótávolság: 16.1 km
Derült ég

METAR: KDUA 221135Z AUTO 00000KT 10SM CLR 22/18 A3010 RMK AO2

Idő: 07:19 (12:19 UTC)

Előrejelzés

A jelentés 59 perccel ezelõtt készült, 11:20 UTC
Az előrejelzés 22-én 12 óra UTC és 23-én 12 óra UTC között érvényes
Déli szél 5 kt
Látótávolság: 10 km
Szórványos felhőzet 25000 lábon
22-én 1500 órától UTC szerint
Délnyugati szél 9 kt
Látótávolság: 10 km
Szórványos felhőzet 5000 lábon
Szórványos felhőzet 25000 lábon

TAF: KDUA 221120Z 2212/2312 19005KT P6SM SCT250 FM221500 22009KT P6SM SCT050 SCT250

Meteorológiai megfigyelések és előrejelzések több, mint 4000 repülőtéren (METAR és TAF jelentéseket).

A térképen piros és sárga pontok jelzik az elérhető meteorológiai állomásokat.

Mozgassa az egeret a pont fölött, hogy megjelenjen az állomás neve.

Azután kattintson az időjárási megfigyelések és előrejelzések megtekintéséhez.

A térkép megváltoztatása: kattintson a fekete keresztel jelölt zöld gombra ráközelítéshez, a vonallal jelölt zöld gombra távolításhoz, vagy a zöld nyilakra a szomszédos térképek eléréséhez.


METAR-TAF: